Terminal Aerodrome Forecast
Issued by NWS

Home | Current Version | Previous Version | Text Only | Print | Product List | Glossary On
Versions: 1 2 3 4 5 6 7 8 9 10 11 12 13 14 15 16 17 18 19 20 21 22 23 24 25 26 27 28 29 30
000
FTUS43 KDLH 282300
TAFHIB
TAF
KHIB 282339Z 2900/2924 16005KT P6SM SCT045 BKN120
     FM290700 12004KT P6SM VCSH SCT035 BKN060
     FM291200 07005KT 5SM BR VCSH BKN015 OVC035 PROB30 2912/2916 2SM
      -SHRA BR BKN008
     FM291600 08006KT 3SM -SHRA BR OVC008
     FM292000 08005KT P6SM BKN015=

USA.gov is the U.S. government's official web portal to all federal, state and local government web resources and services.